Terminal Aerodrome Forecast
Issued by NWS Austin/San Antonio, TX

Home | Current Version | Previous Version | Text Only | Print | Product List | Glossary On
Versions: 1 2 3 4 5 6 7 8 9 10 11 12 13 14 15 16 17 18 19 20 21 22 23 24 25 26 27 28 29 30 31 32 33
000
FTUS44 KEWX 250338 AAA
TAFSAT
TAF AMD
KSAT 250338Z 2504/2606 14012G22KT P6SM BKN022 OVC030
     FM250700 15009KT 6SM BR OVC007
     FM251300 16010KT P6SM OVC012
     FM251800 15010KT P6SM SCT025 OVC035
     FM260000 14013G23KT P6SM BKN050=

USA.gov is the U.S. government's official web portal to all federal, state and local government web resources and services.